CheckWX is a tool to help pilots better visualize weather data.  It is not intended as a substitute for an official pre-flight weather briefing.

12:13:10 UTC

KLGD METAR
La Grande / Union County Airport
La Grande, Oregon, USA
Current

17 mins ago

KLGD 251156Z AUTO 17010KT 10SM FEW030 06/01 A3018 RMK AO2 SLP353 70006 T00560006 10067 20000 58012
Observed
Mar-25 @ 11:56 UTC
Wind
  • 170° at 10 KTS
Visibility
10 SM
Flight Rules
VFR
Cloud Levels
  • Few at 3,000' AGL
Temperature
C / 43°F
Dewpoint
C / 34°F
Humidity
71%
Altimeter
30.18" Hg
Pressure
1035.3 hPa
Previous

1 hour ago

KLGD 251056Z AUTO 17014KT 10SM BKN030 06/01 A3019 RMK AO2 SLP357 T00560011
Observed
Mar-25 @ 10:56 UTC
Wind
  • 170° at 14 KTS
Visibility
10 SM
Flight Rules
MVFR
Cloud Levels
  • Broken at 3,000' AGL
Temperature
C / 43°F
Dewpoint
C / 34°F
Humidity
71%
Altimeter
30.19" Hg
Pressure
1035.7 hPa
Previous

2 hours ago

KLGD 250956Z AUTO VRB04KT 10SM FEW024 06/01 A3021 RMK AO2 PK WND 12031/0917 SLP363 T00560011
Observed
Mar-25 @ 09:56 UTC
Wind
  • Variable at 4 KTS
Visibility
10 SM
Flight Rules
VFR
Cloud Levels
  • Few at 2,400' AGL
Temperature
C / 43°F
Dewpoint
C / 34°F
Humidity
71%
Altimeter
30.21" Hg
Pressure
1036.3 hPa